Kezdőlap
METAR-TAF:

METAR-TAF

Repülőterek :

Tiencsin, Kína

földrajzi szélesség: 39-11N, földrajzi hosszúság: 117-21E, magasság: 3 m

Jelenlegi meteorológiai megfigyelések

A jelentés 34 perccel ezelõtt készült, 23:00 UTC
Keleti szél 12 kt
Hőmérséklet 24°C
Páratartalom 44%
Légköri nyomás 1003 hPa
Látótávolság 10 km, vagy több
felhőtlen 1500 m magasságban, és nincs gomolyfelhõ

METAR: ZBTJ 032300Z 08006MPS CAVOK 24/11 Q1003 NOSIG

Idő: 07:34 (23:34 UTC)

Előrejelzés

A jelentés 8 órával és 27 perccel ezelõtt készült, 15:07 UTC
Az előrejelzés 03-én 18 óra UTC és 04-én 18 óra UTC között érvényes
Keleti szél 8 kt
Látótávolság: 5000 m
Száraz légköri homály

TAF: ZBTJ 031507Z 0318/0418 09004MPS 5000 HZ NSC TX27/0407Z TN21/0321Z

Meteorológiai megfigyelések és előrejelzések több, mint 4000 repülőtéren (METAR és TAF jelentéseket).

A térképen piros és sárga pontok jelzik az elérhető meteorológiai állomásokat.

Mozgassa az egeret a pont fölött, hogy megjelenjen az állomás neve.

Azután kattintson az időjárási megfigyelések és előrejelzések megtekintéséhez.

A térkép megváltoztatása: kattintson a fekete keresztel jelölt zöld gombra ráközelítéshez, a vonallal jelölt zöld gombra távolításhoz, vagy a zöld nyilakra a szomszédos térképek eléréséhez.


METAR-TAF: